Time;durP1;ratioP1;P1;durP2;ratioP2;P2;SDS_P1;SDS_P2;PMS_P1;PMS_P2;Temp;Humidity;BMP_temperature;BMP_pressure;BME280_temperature;BME280_humidity;BME280_pressure;Samples;Min_cycle;Max_cycle;Signal;HPM_P1;HPM_P2
2022/04/17 06:22:48;;;;;;;17.05;9.18;;;;;;;;;;5006410;27;20757;-63
2022/04/17 06:25:14;;;;;;;19.02;11.70;;;;;;;;;;4996879;28;20037;-63
2022/04/17 06:27:41;;;;;;;19.15;10.50;;;;;;;;;;4994858;28;20105;-63
2022/04/17 06:30:11;;;;;;;21.55;10.27;;;;;;;;;;4997298;28;20029;-65
2022/04/17 06:32:37;;;;;;;18.38;10.18;;;;;;;;;;4995585;28;20065;-63
2022/04/17 06:35:06;;;;;;;16.05;9.95;;;;;;;;;;4995809;28;20025;-63
2022/04/17 06:37:31;;;;;;;16.17;9.32;;;;;;;;;;4996802;28;20199;-62
2022/04/17 06:39:59;;;;;;;14.15;8.85;;;;;;;;;;4997290;28;20039;-62
2022/04/17 06:42:27;;;;;;;17.52;9.63;;;;;;;;;;5009344;28;20539;-63
2022/04/17 06:44:53;;;;;;;16.50;8.88;;;;;;;;;;5006601;28;20410;-63
2022/04/17 06:47:18;;;;;;;14.85;9.10;;;;;;;;;;5012055;28;20029;-61
2022/04/17 06:49:44;;;;;;;13.27;8.48;;;;;;;;;;4994666;28;20022;-63
2022/04/17 06:52:12;;;;;;;13.82;8.52;;;;;;;;;;4995365;28;20688;-63
2022/04/17 06:54:37;;;;;;;18.98;9.60;;;;;;;;;;5010089;28;20037;-64
2022/04/17 06:57:02;;;;;;;11.93;7.72;;;;;;;;;;5009021;28;20116;-63
2022/04/17 06:59:28;;;;;;;12.65;8.13;;;;;;;;;;4994286;28;20263;-65
2022/04/17 07:01:53;;;;;;;10.90;7.75;;;;;;;;;;4995212;28;20044;-63
2022/04/17 07:04:18;;;;;;;12.63;8.00;;;;;;;;;;4997998;28;20078;-63
2022/04/17 07:06:48;;;;;;;12.75;8.45;;;;;;;;;;4998689;28;20064;-63
2022/04/17 07:09:14;;;;;;;15.43;9.10;;;;;;;;;;4995214;28;20193;-63
2022/04/17 07:11:39;;;;;;;14.10;8.85;;;;;;;;;;4996237;28;20183;-65
2022/04/17 07:14:04;;;;;;;10.82;7.68;;;;;;;;;;4996751;28;20077;-64
2022/04/17 07:16:32;;;;;;;13.68;8.38;;;;;;;;;;5012932;28;20037;-64
2022/04/17 07:18:57;;;;;;;11.65;7.80;;;;;;;;;;5001210;28;20033;-65
2022/04/17 07:21:23;;;;;;;12.07;6.75;;;;;;;;;;4994494;28;20049;-64
2022/04/17 07:23:48;;;;;;;11.23;7.13;;;;;;;;;;4995420;28;20144;-65
2022/04/17 07:26:14;;;;;;;14.75;8.20;;;;;;;;;;4996735;28;20051;-64
2022/04/17 07:28:39;;;;;;;11.30;7.68;;;;;;;;;;4997054;28;20417;-64
2022/04/17 07:31:05;;;;;;;12.95;7.03;;;;;;;;;;4994611;28;20029;-64
2022/04/17 07:33:32;;;;;;;10.90;6.70;;;;;;;;;;4973098;28;20042;-64
2022/04/17 07:35:58;;;;;;;11.40;7.47;;;;;;;;;;4979139;28;20029;-65
2022/04/17 07:38:23;;;;;;;11.45;7.57;;;;;;;;;;4981497;28;20262;-65
2022/04/17 07:40:52;;;;;;;11.57;7.85;;;;;;;;;;4982901;28;20098;-65
2022/04/17 07:43:20;;;;;;;9.07;6.53;;;;;;;;;;4982212;28;20037;-65
2022/04/17 07:45:48;;;;;;;9.88;6.53;;;;;;;;;;4993806;28;20436;-64
2022/04/17 07:48:13;;;;;;;11.07;7.40;;;;;;;;;;4998710;28;20037;-67
2022/04/17 07:50:39;;;;;;;13.23;8.40;;;;;;;;;;4979504;28;21856;-66
2022/04/17 07:53:05;;;;;;;9.50;6.18;;;;;;;;;;4980785;28;20326;-66
2022/04/17 07:55:32;;;;;;;12.10;6.05;;;;;;;;;;4980686;28;20276;-66
2022/04/17 07:58:06;;;;;;;8.27;5.53;;;;;;;;;;4980437;28;20040;-66
2022/04/17 08:00:44;;;;;;;9.80;6.18;;;;;;;;;;4995040;28;20039;-67
2022/04/17 08:03:22;;;;;;;8.93;5.70;;;;;;;;;;4981843;28;20048;-67
2022/04/17 08:05:47;;;;;;;10.30;5.40;;;;;;;;;;4980810;28;20017;-67
2022/04/17 08:08:16;;;;;;;9.70;6.40;;;;;;;;;;4981185;28;20067;-66
2022/04/17 08:10:44;;;;;;;10.77;6.10;;;;;;;;;;4982277;28;20041;-66
2022/04/17 08:13:09;;;;;;;9.88;5.95;;;;;;;;;;4991923;28;20038;-68
2022/04/17 08:15:35;;;;;;;11.73;5.47;;;;;;;;;;4981057;28;20068;-67
2022/04/17 08:18:00;;;;;;;10.15;5.40;;;;;;;;;;4985461;28;20049;-67
2022/04/17 08:20:28;;;;;;;8.00;5.03;;;;;;;;;;4984352;28;20524;-68
2022/04/17 08:22:53;;;;;;;7.88;4.55;;;;;;;;;;4982428;28;20065;-67
2022/04/17 08:25:19;;;;;;;9.23;5.50;;;;;;;;;;4979680;28;20410;-67
2022/04/17 08:27:57;;;;;;;6.10;4.78;;;;;;;;;;4980413;28;20033;-66
2022/04/17 08:30:26;;;;;;;7.25;4.43;;;;;;;;;;4978928;28;20482;-66
2022/04/17 08:32:51;;;;;;;9.30;4.90;;;;;;;;;;4979744;28;20279;-68
2022/04/17 08:35:17;;;;;;;7.50;5.20;;;;;;;;;;4979622;28;20168;-67
2022/04/17 08:37:45;;;;;;;8.57;4.75;;;;;;;;;;4992794;28;20087;-68
2022/04/17 08:40:11;;;;;;;6.60;4.90;;;;;;;;;;4981357;28;20048;-69
2022/04/17 08:42:38;;;;;;;6.65;5.18;;;;;;;;;;4981076;28;20525;-67
2022/04/17 08:45:03;;;;;;;6.15;4.90;;;;;;;;;;4969459;28;20265;-68
2022/04/17 08:47:29;;;;;;;10.68;5.43;;;;;;;;;;4982521;28;20206;-68
2022/04/17 08:49:55;;;;;;;8.05;4.88;;;;;;;;;;4987801;28;20033;-68
2022/04/17 08:52:22;;;;;;;6.72;4.72;;;;;;;;;;4979893;28;20480;-68
2022/04/17 08:54:48;;;;;;;7.53;4.70;;;;;;;;;;4983333;28;20442;-68
2022/04/17 08:57:20;;;;;;;7.88;4.70;;;;;;;;;;4979964;28;20169;-67
2022/04/17 08:59:46;;;;;;;6.30;4.63;;;;;;;;;;5007063;28;20036;-68
2022/04/17 09:02:12;;;;;;;7.10;4.72;;;;;;;;;;5000214;28;20131;-68
2022/04/17 09:04:44;;;;;;;6.60;4.60;;;;;;;;;;4982647;28;20040;-66
2022/04/17 09:07:10;;;;;;;8.30;4.47;;;;;;;;;;4997359;28;20222;-68
2022/04/17 09:09:39;;;;;;;5.55;4.78;;;;;;;;;;4989992;28;20117;-67
2022/04/17 09:12:05;;;;;;;6.65;4.35;;;;;;;;;;4978874;28;21938;-68
2022/04/17 09:14:31;;;;;;;6.15;4.45;;;;;;;;;;4994749;28;20539;-68
2022/04/17 09:16:56;;;;;;;7.25;4.65;;;;;;;;;;4980255;28;20033;-69
2022/04/17 09:19:24;;;;;;;6.95;4.50;;;;;;;;;;4993362;28;20707;-69
2022/04/17 09:21:54;;;;;;;7.57;4.40;;;;;;;;;;4981639;28;20046;-69
2022/04/17 09:24:21;;;;;;;8.05;4.10;;;;;;;;;;4980079;28;20060;-68
2022/04/17 09:26:49;;;;;;;11.40;4.60;;;;;;;;;;4994643;28;20030;-70
2022/04/17 09:29:19;;;;;;;8.13;4.50;;;;;;;;;;4981378;28;20955;-68
2022/04/17 09:31:44;;;;;;;8.40;4.20;;;;;;;;;;4982409;28;20896;-67
2022/04/17 09:34:12;;;;;;;7.30;4.28;;;;;;;;;;4982485;28;20239;-68
2022/04/17 09:36:38;;;;;;;6.60;4.05;;;;;;;;;;4983295;28;20037;-69
2022/04/17 09:39:10;;;;;;;5.65;4.28;;;;;;;;;;4997824;28;21018;-69
2022/04/17 09:41:50;;;;;;;5.60;3.88;;;;;;;;;;4994688;28;20025;-69
2022/04/17 09:44:32;;;;;;;5.28;3.75;;;;;;;;;;4995662;28;20031;-68
2022/04/17 09:46:58;;;;;;;5.03;3.35;;;;;;;;;;4980996;28;20056;-68
2022/04/17 09:49:23;;;;;;;4.57;3.60;;;;;;;;;;4981083;28;20533;-67
2022/04/17 09:52:12;;;;;;;4.47;3.75;;;;;;;;;;4977998;28;20445;-68
2022/04/17 09:54:37;;;;;;;6.45;4.53;;;;;;;;;;4977974;28;20045;-69
2022/04/17 09:57:03;;;;;;;7.57;4.20;;;;;;;;;;4968933;28;20030;-69
2022/04/17 09:59:33;;;;;;;6.70;4.75;;;;;;;;;;4995447;28;20106;-69
2022/04/17 10:01:59;;;;;;;11.75;5.78;;;;;;;;;;4977837;28;20052;-67
2022/04/17 10:04:25;;;;;;;7.97;5.03;;;;;;;;;;4980382;28;20770;-68
2022/04/17 10:06:57;;;;;;;6.60;5.00;;;;;;;;;;4991203;28;20036;-68
2022/04/17 10:09:23;;;;;;;6.75;4.57;;;;;;;;;;4982084;28;20063;-68
2022/04/17 10:11:49;;;;;;;6.68;4.45;;;;;;;;;;4980999;28;20140;-68
2022/04/17 10:14:15;;;;;;;7.68;4.00;;;;;;;;;;4979608;28;20498;-67
2022/04/17 10:16:43;;;;;;;5.72;4.20;;;;;;;;;;4992079;28;20029;-68
2022/04/17 10:19:11;;;;;;;6.25;3.80;;;;;;;;;;4996681;28;20508;-68
2022/04/17 10:21:38;;;;;;;6.55;4.00;;;;;;;;;;4980456;28;20409;-67
2022/04/17 10:24:05;;;;;;;5.13;4.07;;;;;;;;;;4977584;28;20052;-68
2022/04/17 10:26:41;;;;;;;5.25;4.15;;;;;;;;;;4978579;28;20083;-68
2022/04/17 10:29:08;;;;;;;5.07;3.70;;;;;;;;;;4979667;28;20025;-69
2022/04/17 10:31:46;;;;;;;5.55;3.60;;;;;;;;;;4980543;28;20033;-70
2022/04/17 10:34:33;;;;;;;5.20;3.65;;;;;;;;;;4964690;28;20490;-69
2022/04/17 10:37:13;;;;;;;5.28;3.70;;;;;;;;;;4982927;28;20147;-70
2022/04/17 10:39:41;;;;;;;6.35;3.30;;;;;;;;;;4987285;28;20772;-70
2022/04/17 10:42:08;;;;;;;6.80;4.00;;;;;;;;;;4977282;28;20156;-68
2022/04/17 10:44:41;;;;;;;7.97;3.97;;;;;;;;;;4986188;28;20312;-69
2022/04/17 10:47:21;;;;;;;7.32;4.35;;;;;;;;;;4993473;28;20441;-69
2022/04/17 10:49:56;;;;;;;7.20;4.60;;;;;;;;;;4982482;28;20330;-69
2022/04/17 10:52:32;;;;;;;6.50;4.45;;;;;;;;;;4992284;28;20624;-70
2022/04/17 10:55:08;;;;;;;8.35;4.47;;;;;;;;;;4974766;28;20666;-68
2022/04/17 10:57:50;;;;;;;5.30;4.13;;;;;;;;;;4980480;28;20431;-67
2022/04/17 11:00:36;;;;;;;6.38;4.32;;;;;;;;;;4978076;28;21228;-67
2022/04/17 11:03:08;;;;;;;6.57;4.50;;;;;;;;;;4983738;28;20041;-67
2022/04/17 11:06:06;;;;;;;6.32;4.20;;;;;;;;;;4979252;28;20054;-69
2022/04/17 11:08:20;;;;;;;4.45;3.70;;;;;;;;;;4984636;28;20119;-69
2022/04/17 11:10:49;;;;;;;5.15;3.45;;;;;;;;;;5003706;28;20029;-68
2022/04/17 11:13:17;;;;;;;4.57;3.63;;;;;;;;;;4988119;28;20101;-68
2022/04/17 11:15:51;;;;;;;5.82;3.70;;;;;;;;;;4977312;28;20089;-69
2022/04/17 11:18:16;;;;;;;;;;;;;;;;;;5011907;28;20032;-68
2022/04/17 11:20:41;;;;;;;6.07;4.88;;;;;;;;;;4986114;28;19921;-68
2022/04/17 11:23:09;;;;;;;6.28;4.00;;;;;;;;;;5002288;28;20065;-69
2022/04/17 11:25:46;;;;;;;7.30;4.75;;;;;;;;;;5000291;28;20050;-69
2022/04/17 11:28:32;;;;;;;4.72;4.20;;;;;;;;;;4986599;28;20060;-69
2022/04/17 11:30:57;;;;;;;5.10;3.78;;;;;;;;;;5003010;28;20029;-69
2022/04/17 11:33:25;;;;;;;4.05;3.17;;;;;;;;;;4998404;28;20129;-69
2022/04/17 11:35:50;;;;;;;4.32;2.60;;;;;;;;;;4985796;28;21128;-69
2022/04/17 11:38:16;;;;;;;6.32;3.17;;;;;;;;;;5002801;28;20133;-69
2022/04/17 11:40:44;;;;;;;4.95;2.40;;;;;;;;;;4985805;28;20037;-67
2022/04/17 11:43:10;;;;;;;3.75;2.30;;;;;;;;;;4986404;28;20035;-68
2022/04/17 11:45:35;;;;;;;4.00;2.28;;;;;;;;;;5002060;28;20103;-66
2022/04/17 11:48:09;;;;;;;4.15;2.45;;;;;;;;;;5001933;28;20029;-68
2022/04/17 11:50:34;;;;;;;4.07;2.42;;;;;;;;;;4981355;28;20095;-69
2022/04/17 11:53:02;;;;;;;4.13;2.47;;;;;;;;;;4983316;28;20025;-68
2022/04/17 11:55:32;;;;;;;4.85;2.80;;;;;;;;;;4980193;28;20041;-69
2022/04/17 11:58:00;;;;;;;2.97;1.92;;;;;;;;;;4980282;28;20889;-68
2022/04/17 12:00:26;;;;;;;5.95;2.67;;;;;;;;;;4983005;28;20382;-71
2022/04/17 12:02:59;;;;;;;5.25;3.00;;;;;;;;;;4977904;28;20033;-67
2022/04/17 12:05:24;;;;;;;4.30;2.65;;;;;;;;;;4977088;28;20589;-67
2022/04/17 12:07:57;;;;;;;4.55;2.70;;;;;;;;;;4992468;28;20338;-68
2022/04/17 12:10:25;;;;;;;5.10;2.60;;;;;;;;;;4983077;28;20195;-67
2022/04/17 12:12:50;;;;;;;7.20;2.90;;;;;;;;;;4972517;28;20064;-68
2022/04/17 12:15:16;;;;;;;4.28;3.00;;;;;;;;;;4979451;28;20034;-67
2022/04/17 12:17:42;;;;;;;5.95;3.58;;;;;;;;;;4985388;28;20037;-67
2022/04/17 12:20:08;;;;;;;9.05;3.97;;;;;;;;;;4991782;28;20249;-67
2022/04/17 12:22:37;;;;;;;6.88;4.43;;;;;;;;;;4982767;28;20080;-68
2022/04/17 12:25:14;;;;;;;5.45;4.13;;;;;;;;;;4979074;28;20041;-68
2022/04/17 12:27:40;;;;;;;6.32;4.10;;;;;;;;;;4977100;28;20017;-67
2022/04/17 12:30:06;;;;;;;6.32;4.50;;;;;;;;;;4980503;28;20220;-67
2022/04/17 12:32:31;;;;;;;5.75;4.10;;;;;;;;;;4957435;28;20099;-68
2022/04/17 12:35:05;;;;;;;6.40;4.05;;;;;;;;;;4995341;28;20328;-70
2022/04/17 12:37:31;;;;;;;;;;;;;;;;;;4983230;28;20079;-69
2022/04/17 12:40:26;;;;;;;6.72;5.43;;;;;;;;;;4982931;28;20000;-67
2022/04/17 12:42:52;;;;;;;7.38;5.88;;;;;;;;;;4972221;28;20052;-70
2022/04/17 12:45:26;;;;;;;7.32;6.10;;;;;;;;;;4979557;28;20102;-70
2022/04/17 12:48:04;;;;;;;7.78;5.80;;;;;;;;;;4979837;28;20025;-70
2022/04/17 12:50:30;;;;;;;9.93;6.15;;;;;;;;;;4979512;28;20120;-69
2022/04/17 12:52:56;;;;;;;9.48;5.95;;;;;;;;;;4983336;28;20039;-68
2022/04/17 12:55:28;;;;;;;7.43;5.85;;;;;;;;;;4981238;28;20300;-67
2022/04/17 12:57:57;;;;;;;8.80;6.40;;;;;;;;;;4981177;28;20017;-68
2022/04/17 13:00:24;;;;;;;8.40;6.68;;;;;;;;;;4997044;28;20039;-69
2022/04/17 13:02:49;;;;;;;8.90;6.43;;;;;;;;;;5008068;28;20117;-68
2022/04/17 13:05:23;;;;;;;10.05;6.15;;;;;;;;;;4985115;28;20029;-74
2022/04/17 13:07:49;;;;;;;8.43;6.63;;;;;;;;;;4984116;28;20037;-68
2022/04/17 13:10:14;;;;;;;8.77;6.97;;;;;;;;;;4986514;28;20056;-68
2022/04/17 13:12:43;;;;;;;9.30;6.47;;;;;;;;;;4986239;28;20037;-68
2022/04/17 13:15:12;;;;;;;8.43;7.05;;;;;;;;;;5004071;28;20033;-70
2022/04/17 13:17:44;;;;;;;8.95;7.32;;;;;;;;;;4993350;28;20839;-68
2022/04/17 13:20:09;;;;;;;10.30;7.25;;;;;;;;;;4987426;28;20148;-69
2022/04/17 13:22:35;;;;;;;9.55;7.07;;;;;;;;;;4985956;28;20055;-69
2022/04/17 13:25:00;;;;;;;8.35;7.10;;;;;;;;;;4994921;28;20048;-68
2022/04/17 13:27:25;;;;;;;8.43;6.65;;;;;;;;;;4995304;28;20378;-70
2022/04/17 13:29:51;;;;;;;8.27;6.95;;;;;;;;;;4980757;28;20436;-70
2022/04/17 13:32:16;;;;;;;9.55;7.07;;;;;;;;;;4979532;28;20035;-70
2022/04/17 13:34:42;;;;;;;9.18;6.40;;;;;;;;;;4989468;28;20029;-69
2022/04/17 13:39:51;;;;;;;8.15;6.63;;;;;;;;;;4977251;28;20029;-69
2022/04/17 13:42:17;;;;;;;9.27;6.60;;;;;;;;;;4993272;28;20108;-69
2022/04/17 13:44:42;;;;;;;8.38;6.55;;;;;;;;;;4990991;28;20483;-69
2022/04/17 13:47:07;;;;;;;7.75;5.63;;;;;;;;;;4978198;28;20482;-69
2022/04/17 13:49:33;;;;;;;8.75;5.78;;;;;;;;;;4977818;28;20462;-68
2022/04/17 13:51:58;;;;;;;7.28;5.90;;;;;;;;;;4976509;28;20037;-70
2022/04/17 13:54:24;;;;;;;7.03;5.53;;;;;;;;;;4993862;28;20367;-70
2022/04/17 13:56:49;;;;;;;12.73;5.90;;;;;;;;;;4980340;28;20611;-70
2022/04/17 13:59:17;;;;;;;7.13;5.55;;;;;;;;;;4982385;28;20041;-69
2022/04/17 14:01:43;;;;;;;7.35;5.50;;;;;;;;;;4995085;28;20033;-71
2022/04/17 14:04:08;;;;;;;7.18;5.35;;;;;;;;;;4980549;28;20091;-70
2022/04/17 14:06:35;;;;;;;6.93;5.78;;;;;;;;;;4980095;28;20027;-71
2022/04/17 14:09:03;;;;;;;6.45;5.70;;;;;;;;;;4979293;28;20025;-70
2022/04/17 14:11:28;;;;;;;7.30;5.70;;;;;;;;;;4981466;28;20235;-70
2022/04/17 14:13:54;;;;;;;9.40;5.43;;;;;;;;;;4982353;28;20037;-71
2022/04/17 14:16:21;;;;;;;11.02;5.50;;;;;;;;;;4992153;28;20157;-71
2022/04/17 14:18:47;;;;;;;5.95;5.32;;;;;;;;;;4994952;28;20528;-68
2022/04/17 14:21:13;;;;;;;7.00;5.53;;;;;;;;;;4975496;28;20147;-67
2022/04/17 14:23:40;;;;;;;7.82;5.60;;;;;;;;;;4983409;28;20060;-68
2022/04/17 14:26:06;;;;;;;6.20;5.35;;;;;;;;;;4979498;28;20639;-69
2022/04/17 14:28:31;;;;;;;5.47;4.80;;;;;;;;;;4965097;28;20431;-69
2022/04/17 14:30:57;;;;;;;6.75;5.20;;;;;;;;;;4977518;28;20160;-69
2022/04/17 14:33:22;;;;;;;6.50;5.50;;;;;;;;;;4995060;28;20502;-68
2022/04/17 14:35:50;;;;;;;6.10;5.50;;;;;;;;;;4980322;28;20333;-67
2022/04/17 14:38:18;;;;;;;7.38;5.55;;;;;;;;;;4994643;28;21121;-68
2022/04/17 14:40:44;;;;;;;7.93;5.57;;;;;;;;;;4980535;28;20036;-69
2022/04/17 14:43:10;;;;;;;6.32;5.20;;;;;;;;;;5000022;28;20458;-69
2022/04/17 14:45:35;;;;;;;7.72;5.15;;;;;;;;;;4983746;28;20033;-69
2022/04/17 14:48:02;;;;;;;5.60;4.85;;;;;;;;;;4987822;28;20036;-68
2022/04/17 14:50:27;;;;;;;5.53;4.45;;;;;;;;;;4988743;28;20497;-67
2022/04/17 14:52:56;;;;;;;8.88;5.00;;;;;;;;;;4998893;28;20084;-68
2022/04/17 14:55:21;;;;;;;9.23;5.15;;;;;;;;;;4986540;28;20037;-72
2022/04/17 14:57:47;;;;;;;5.70;5.05;;;;;;;;;;4983804;28;20191;-72
2022/04/17 15:00:13;;;;;;;7.05;5.57;;;;;;;;;;4984408;28;20073;-72
2022/04/17 15:02:39;;;;;;;6.60;5.20;;;;;;;;;;4984777;28;20968;-73
2022/04/17 15:05:07;;;;;;;6.38;4.90;;;;;;;;;;4982403;28;20037;-70
2022/04/17 15:07:35;;;;;;;6.13;4.70;;;;;;;;;;4982724;28;20029;-69
2022/04/17 15:10:02;;;;;;;7.00;4.80;;;;;;;;;;4981260;28;20457;-69
2022/04/17 15:12:29;;;;;;;6.35;5.15;;;;;;;;;;4983192;28;20040;-70
2022/04/17 15:14:55;;;;;;;7.47;5.05;;;;;;;;;;4981664;28;20517;-69
2022/04/17 15:17:23;;;;;;;7.82;4.95;;;;;;;;;;4985669;28;20193;-70
2022/04/17 15:19:48;;;;;;;6.53;4.60;;;;;;;;;;4999090;28;20042;-70
2022/04/17 15:22:15;;;;;;;6.53;4.90;;;;;;;;;;4982644;28;20045;-70
2022/04/17 15:24:41;;;;;;;6.00;4.60;;;;;;;;;;4984609;28;20029;-69
2022/04/17 15:27:06;;;;;;;6.20;4.40;;;;;;;;;;4998638;28;20850;-69
2022/04/17 15:29:32;;;;;;;5.20;4.22;;;;;;;;;;4998990;28;20441;-69
2022/04/17 15:31:59;;;;;;;6.10;4.75;;;;;;;;;;4985530;28;20053;-69
2022/04/17 15:34:25;;;;;;;6.20;4.47;;;;;;;;;;4993810;28;20054;-70
2022/04/17 15:36:50;;;;;;;7.22;5.13;;;;;;;;;;4981891;28;20060;-69
2022/04/17 15:39:15;;;;;;;5.35;4.55;;;;;;;;;;4997797;28;20290;-70
2022/04/17 15:41:42;;;;;;;6.43;4.50;;;;;;;;;;4995158;28;20204;-68
2022/04/17 15:49:35;;;;;;;5.03;4.00;;;;;;;;;;4989478;28;20033;-71
2022/04/17 15:52:02;;;;;;;5.15;4.00;;;;;;;;;;4995361;28;20052;-70
2022/04/17 15:54:28;;;;;;;4.38;3.80;;;;;;;;;;4983855;28;20095;-71
2022/04/17 15:56:53;;;;;;;4.82;3.97;;;;;;;;;;4983564;28;20512;-70
2022/04/17 15:59:22;;;;;;;4.72;4.00;;;;;;;;;;4986259;28;20497;-71
2022/04/17 16:01:47;;;;;;;5.32;4.13;;;;;;;;;;5002533;28;20047;-71
2022/04/17 16:04:12;;;;;;;6.80;4.20;;;;;;;;;;4998451;28;20407;-70
2022/04/17 16:06:40;;;;;;;5.78;3.92;;;;;;;;;;4981904;28;20143;-71
2022/04/17 16:09:05;;;;;;;7.70;3.95;;;;;;;;;;4982428;28;20030;-71
2022/04/17 16:11:33;;;;;;;6.93;4.13;;;;;;;;;;4982307;28;20074;-69
2022/04/17 16:13:58;;;;;;;5.60;4.20;;;;;;;;;;4994226;28;20644;-73
2022/04/17 16:16:23;;;;;;;5.30;3.75;;;;;;;;;;4982125;28;20293;-70
2022/04/17 16:18:49;;;;;;;4.63;3.65;;;;;;;;;;4990755;28;20562;-70
2022/04/17 16:21:15;;;;;;;6.72;4.03;;;;;;;;;;5000877;28;20053;-71
2022/04/17 16:23:40;;;;;;;5.20;4.25;;;;;;;;;;4988934;28;20041;-70
2022/04/17 16:26:08;;;;;;;4.88;3.80;;;;;;;;;;4984659;28;20041;-71
2022/04/17 16:28:36;;;;;;;5.30;4.40;;;;;;;;;;5003181;28;20088;-70
2022/04/17 16:31:02;;;;;;;5.82;3.95;;;;;;;;;;4991234;28;20029;-70
2022/04/17 16:33:27;;;;;;;6.22;4.07;;;;;;;;;;4983634;28;20548;-71
2022/04/17 16:35:55;;;;;;;5.28;4.25;;;;;;;;;;4991679;28;20060;-70
2022/04/17 16:38:23;;;;;;;7.15;3.70;;;;;;;;;;4989101;28;20068;-70
2022/04/17 16:40:48;;;;;;;4.95;4.10;;;;;;;;;;5005104;28;20455;-69
2022/04/17 16:43:14;;;;;;;6.65;3.92;;;;;;;;;;4995920;28;20492;-72
2022/04/17 16:45:39;;;;;;;4.30;3.78;;;;;;;;;;5000365;28;20107;-70
2022/04/17 16:48:07;;;;;;;4.78;3.55;;;;;;;;;;4997498;28;20115;-70
2022/04/17 16:50:35;;;;;;;5.47;3.60;;;;;;;;;;5018416;28;20028;-71
2022/04/17 16:53:00;;;;;;;5.70;3.25;;;;;;;;;;5012951;28;20160;-71
2022/04/17 16:55:31;;;;;;;5.18;3.60;;;;;;;;;;5003693;28;20521;-71
2022/04/17 17:00:42;;;;;;;4.80;3.58;;;;;;;;;;5015202;28;20041;-69
2022/04/17 17:03:08;;;;;;;5.55;3.50;;;;;;;;;;4984830;28;20396;-67
2022/04/17 17:05:33;;;;;;;7.68;3.58;;;;;;;;;;5025675;28;20022;-69
2022/04/17 17:07:59;;;;;;;5.80;4.00;;;;;;;;;;5020240;28;20034;-70
2022/04/17 17:10:24;;;;;;;4.40;3.72;;;;;;;;;;5015603;28;20022;-69
2022/04/17 17:12:50;;;;;;;5.07;4.00;;;;;;;;;;4995421;28;20073;-70
2022/04/17 17:15:15;;;;;;;6.70;3.90;;;;;;;;;;4981117;28;20036;-68
2022/04/17 17:17:43;;;;;;;7.55;3.70;;;;;;;;;;4981336;28;20130;-67
2022/04/17 17:20:08;;;;;;;5.95;3.53;;;;;;;;;;4977685;28;20195;-68
2022/04/17 17:22:34;;;;;;;6.35;3.70;;;;;;;;;;4992524;28;20060;-68
2022/04/17 17:24:59;;;;;;;5.63;3.63;;;;;;;;;;4982605;28;20029;-69
2022/04/17 17:27:27;;;;;;;5.65;3.70;;;;;;;;;;4993824;28;20082;-69
2022/04/17 17:29:53;;;;;;;6.10;3.50;;;;;;;;;;4981308;28;20463;-70
2022/04/17 17:32:18;;;;;;;5.60;3.63;;;;;;;;;;4997644;28;20040;-70
2022/04/17 17:34:46;;;;;;;5.72;3.63;;;;;;;;;;4977847;28;20029;-68
2022/04/17 17:37:12;;;;;;;6.10;3.97;;;;;;;;;;4980547;28;20048;-70
2022/04/17 17:39:40;;;;;;;5.15;4.10;;;;;;;;;;4985320;28;20125;-68
2022/04/17 17:42:05;;;;;;;6.60;4.40;;;;;;;;;;5004881;28;20040;-69
2022/04/17 17:44:34;;;;;;;7.57;4.30;;;;;;;;;;4996517;28;20071;-70
2022/04/17 17:47:03;;;;;;;7.00;4.15;;;;;;;;;;4981565;28;20748;-69
2022/04/17 17:49:29;;;;;;;6.18;4.40;;;;;;;;;;4981241;28;20136;-69
2022/04/17 17:51:55;;;;;;;7.05;4.32;;;;;;;;;;4996552;28;20456;-69
2022/04/17 17:54:21;;;;;;;6.72;4.60;;;;;;;;;;4996740;28;20269;-70
2022/04/17 17:56:46;;;;;;;7.25;4.50;;;;;;;;;;4986725;28;20033;-70
2022/04/17 17:59:11;;;;;;;7.75;4.90;;;;;;;;;;4999890;28;20068;-70
2022/04/17 18:01:39;;;;;;;6.32;4.40;;;;;;;;;;4984197;28;20542;-70
2022/04/17 18:04:04;;;;;;;6.63;4.57;;;;;;;;;;4980851;28;20029;-69
2022/04/17 18:06:29;;;;;;;5.90;4.78;;;;;;;;;;4991401;28;20032;-70
2022/04/17 18:14:34;;;;;;;8.68;4.90;;;;;;;;;;4977121;28;20030;-69
2022/04/17 18:17:01;;;;;;;7.07;4.82;;;;;;;;;;4975815;28;20029;-70
2022/04/17 18:19:26;;;;;;;8.25;4.93;;;;;;;;;;4975162;28;20108;-70
2022/04/17 18:22:37;;;;;;;5.88;4.53;;;;;;;;;;4980044;28;20049;-70
2022/04/17 18:24:40;;;;;;;6.35;4.82;;;;;;;;;;4992484;28;20535;-71
2022/04/17 18:27:05;;;;;;;6.63;4.75;;;;;;;;;;4994912;28;20028;-68
2022/04/17 18:29:30;;;;;;;7.80;4.72;;;;;;;;;;4988996;28;20037;-70
2022/04/17 18:31:56;;;;;;;5.82;4.65;;;;;;;;;;4978849;28;20589;-70
2022/04/17 18:34:21;;;;;;;7.95;5.00;;;;;;;;;;4976841;28;20464;-68
2022/04/17 18:36:48;;;;;;;6.10;5.03;;;;;;;;;;4993055;28;20394;-69
2022/04/17 18:39:13;;;;;;;6.40;4.78;;;;;;;;;;4988370;28;20044;-70
2022/04/17 18:41:38;;;;;;;7.25;4.93;;;;;;;;;;4990043;28;20069;-69
2022/04/17 18:44:04;;;;;;;6.18;4.78;;;;;;;;;;4979465;28;21797;-70
2022/04/17 18:46:29;;;;;;;6.93;5.13;;;;;;;;;;4976798;28;20022;-69
2022/04/17 18:48:57;;;;;;;6.93;4.68;;;;;;;;;;4976576;28;20164;-70
2022/04/17 18:51:22;;;;;;;8.88;5.40;;;;;;;;;;4973230;28;20026;-70
2022/04/17 18:53:48;;;;;;;10.32;5.72;;;;;;;;;;4972596;28;20086;-71
2022/04/17 18:56:16;;;;;;;10.45;6.00;;;;;;;;;;4993791;28;20232;-69
2022/04/17 18:58:41;;;;;;;8.50;6.00;;;;;;;;;;4979945;28;20029;-70
2022/04/17 19:01:07;;;;;;;9.23;6.75;;;;;;;;;;4996620;28;20339;-69
2022/04/17 19:03:33;;;;;;;9.23;5.88;;;;;;;;;;4995007;28;20033;-69
2022/04/17 19:05:58;;;;;;;7.43;5.82;;;;;;;;;;4988856;28;20452;-70
2022/04/17 19:08:27;;;;;;;9.98;6.10;;;;;;;;;;4987040;28;20025;-70
2022/04/17 19:10:52;;;;;;;10.80;6.50;;;;;;;;;;4983644;28;20032;-69
2022/04/17 19:16:04;;;;;;;8.25;6.22;;;;;;;;;;4976628;28;20087;-70
2022/04/17 19:18:32;;;;;;;10.05;5.97;;;;;;;;;;4976712;28;20458;-70
2022/04/17 19:20:57;;;;;;;9.43;6.20;;;;;;;;;;4980218;28;20109;-70
2022/04/17 19:23:26;;;;;;;7.55;5.85;;;;;;;;;;4990336;28;20040;-71
2022/04/17 19:25:51;;;;;;;8.13;6.10;;;;;;;;;;4965058;28;20041;-70
2022/04/17 19:28:19;;;;;;;8.98;6.05;;;;;;;;;;4978289;28;20044;-70
2022/04/17 19:36:14;;;;;;;9.65;5.68;;;;;;;;;;4985962;28;20040;-70
2022/04/17 19:38:39;;;;;;;7.68;5.47;;;;;;;;;;4981442;28;20034;-69
2022/04/17 19:41:07;;;;;;;9.68;5.90;;;;;;;;;;4984979;28;20495;-68
2022/04/17 19:43:32;;;;;;;9.13;6.00;;;;;;;;;;4979936;28;20172;-69
2022/04/17 19:45:58;;;;;;;8.10;5.85;;;;;;;;;;4984356;28;20128;-70
2022/04/17 19:48:26;;;;;;;9.18;5.95;;;;;;;;;;4982444;28;20522;-69
2022/04/17 19:50:51;;;;;;;7.18;5.47;;;;;;;;;;4995210;28;20505;-69
2022/04/17 19:53:18;;;;;;;8.45;5.43;;;;;;;;;;4991822;28;20063;-70
2022/04/17 19:55:44;;;;;;;9.82;5.80;;;;;;;;;;4981328;28;20038;-69
2022/04/17 19:58:09;;;;;;;9.80;6.38;;;;;;;;;;4980510;28;20511;-69
2022/04/17 20:00:38;;;;;;;10.98;7.10;;;;;;;;;;4995428;28;20054;-70
2022/04/17 20:03:06;;;;;;;13.13;8.82;;;;;;;;;;4992442;28;20060;-70
2022/04/17 20:05:31;;;;;;;10.90;7.65;;;;;;;;;;4981482;28;20037;-70
2022/04/17 20:07:57;;;;;;;10.25;7.18;;;;;;;;;;4983631;28;20045;-69
2022/04/17 20:10:23;;;;;;;10.30;6.35;;;;;;;;;;4983736;28;20030;-69
2022/04/17 20:12:50;;;;;;;10.02;6.30;;;;;;;;;;4983817;28;20857;-70
2022/04/17 20:15:15;;;;;;;6.50;5.43;;;;;;;;;;4977532;28;20195;-71
2022/04/17 20:17:40;;;;;;;7.10;5.47;;;;;;;;;;4982800;28;20275;-71
2022/04/17 20:20:06;;;;;;;6.18;4.97;;;;;;;;;;4982744;28;20064;-71
2022/04/17 20:22:34;;;;;;;6.47;4.78;;;;;;;;;;4982684;28;20161;-72
2022/04/17 20:25:01;;;;;;;7.78;4.63;;;;;;;;;;4993298;28;20464;-70
2022/04/17 20:27:26;;;;;;;7.22;4.47;;;;;;;;;;4982754;28;20162;-70
2022/04/17 20:29:51;;;;;;;7.65;4.72;;;;;;;;;;4982214;28;20037;-69
2022/04/17 20:32:19;;;;;;;6.07;4.60;;;;;;;;;;4982383;28;20398;-70
2022/04/17 20:34:44;;;;;;;6.80;4.40;;;;;;;;;;4992235;28;20033;-69
2022/04/17 20:37:12;;;;;;;6.72;4.28;;;;;;;;;;4979606;28;20038;-70
2022/04/17 20:39:38;;;;;;;12.93;4.85;;;;;;;;;;4993109;28;20242;-70
2022/04/17 20:42:03;;;;;;;9.10;4.78;;;;;;;;;;4978582;28;20090;-69
2022/04/17 20:52:40;;;;;;;8.50;5.25;;;;;;;;;;4977711;28;20378;-69
2022/04/17 20:55:07;;;;;;;7.07;5.63;;;;;;;;;;4978499;28;20076;-69
2022/04/17 20:57:33;;;;;;;11.15;5.97;;;;;;;;;;4990902;28;20597;-68
2022/04/17 20:59:59;;;;;;;7.25;5.20;;;;;;;;;;4992015;28;20042;-69
2022/04/17 21:02:25;;;;;;;7.13;5.90;;;;;;;;;;4979607;28;20124;-69
2022/04/17 21:04:50;;;;;;;9.80;5.65;;;;;;;;;;4993508;28;20051;-70
2022/04/17 21:07:16;;;;;;;8.50;5.90;;;;;;;;;;4989595;28;20060;-69
2022/04/17 21:09:51;;;;;;;8.90;5.75;;;;;;;;;;4967501;28;20515;-69
2022/04/17 21:12:20;;;;;;;7.05;5.70;;;;;;;;;;5004502;28;20247;-69
2022/04/17 21:14:45;;;;;;;7.85;5.40;;;;;;;;;;4976491;28;20103;-69
2022/04/17 21:17:10;;;;;;;9.00;5.55;;;;;;;;;;4975577;28;20029;-69
2022/04/17 21:19:36;;;;;;;10.93;6.03;;;;;;;;;;4975743;28;20709;-69
2022/04/17 21:22:02;;;;;;;11.90;5.72;;;;;;;;;;4994319;28;20124;-69
2022/04/17 21:24:27;;;;;;;8.48;5.90;;;;;;;;;;4978765;28;20218;-68
2022/04/17 21:26:53;;;;;;;9.95;6.30;;;;;;;;;;4981079;28;20099;-69
2022/04/17 21:29:20;;;;;;;8.23;5.85;;;;;;;;;;4982662;28;20311;-69
2022/04/17 21:31:46;;;;;;;9.40;5.72;;;;;;;;;;4992839;28;20029;-69
2022/04/17 21:34:12;;;;;;;10.00;5.95;;;;;;;;;;4981530;28;20045;-69
2022/04/17 21:36:37;;;;;;;8.52;6.13;;;;;;;;;;4983745;28;20047;-69